Time;durP1;ratioP1;P1;durP2;ratioP2;P2;SDS_P1;SDS_P2;PMS_P1;PMS_P2;Temp;Humidity;BMP_temperature;BMP_pressure;BME280_temperature;BME280_humidity;BME280_pressure;Samples;Min_cycle;Max_cycle;Signal;HPM_P1;HPM_P2
2022/04/06 00:01:17;;;;;;;25.02;11.68;;;9.40;99.90;;;;;;5036992;28;20041;-66
2022/04/06 00:03:45;;;;;;;24.02;10.55;;;9.40;99.90;;;;;;5039693;28;20498;-66
2022/04/06 00:06:11;;;;;;;22.27;11.52;;;9.40;99.90;;;;;;5042176;28;20477;-66
2022/04/06 00:08:36;;;;;;;22.00;11.00;;;9.40;99.90;;;;;;5046837;28;20049;-66
2022/04/06 00:11:02;;;;;;;20.30;10.35;;;9.40;99.90;;;;;;5036339;28;20086;-66
2022/04/06 00:13:29;;;;;;;25.42;12.38;;;9.40;99.90;;;;;;5042674;28;20041;-66
2022/04/06 00:15:54;;;;;;;24.20;11.82;;;9.40;99.90;;;;;;5035987;28;20412;-66
2022/04/06 00:18:20;;;;;;;26.38;12.50;;;9.40;99.90;;;;;;5042356;28;20056;-66
2022/04/06 00:20:46;;;;;;;24.63;11.85;;;9.40;99.90;;;;;;5043164;28;20033;-66
2022/04/06 00:23:12;;;;;;;22.13;10.68;;;9.40;99.90;;;;;;5044742;28;20041;-66
2022/04/06 00:25:37;;;;;;;25.05;11.82;;;9.40;99.90;;;;;;5040528;28;20219;-65
2022/04/06 00:28:03;;;;;;;24.50;11.00;;;9.40;99.90;;;;;;5042066;28;20079;-66
2022/04/06 00:30:29;;;;;;;28.98;11.05;;;9.40;99.90;;;;;;5042302;28;20124;-65
2022/04/06 00:32:54;;;;;;;23.63;11.73;;;9.40;99.90;;;;;;5037408;28;20802;-65
2022/04/06 00:35:30;;;;;;;26.80;11.43;;;9.40;99.90;;;;;;5040070;28;20081;-65
2022/04/06 00:37:58;;;;;;;23.77;11.02;;;9.40;99.90;;;;;;5045700;28;20047;-66
2022/04/06 00:40:23;;;;;;;24.48;11.18;;;9.30;99.90;;;;;;5039042;28;20041;-65
2022/04/06 00:42:50;;;;;;;24.52;11.88;;;9.40;99.90;;;;;;5037260;28;20095;-65
2022/04/06 00:45:15;;;;;;;21.90;10.75;;;9.40;99.90;;;;;;5043753;28;20100;-65
2022/04/06 00:47:42;;;;;;;28.73;11.25;;;9.40;99.90;;;;;;5037439;28;20100;-66
2022/04/06 00:50:08;;;;;;;27.85;10.70;;;9.30;99.90;;;;;;5041571;28;20347;-65
2022/04/06 00:52:35;;;;;;;23.33;10.32;;;9.30;99.90;;;;;;5044727;28;20032;-66
2022/04/06 00:55:01;;;;;;;24.15;10.88;;;9.30;99.90;;;;;;5042725;28;20166;-66
2022/04/06 00:57:27;;;;;;;28.60;11.07;;;9.30;99.90;;;;;;5032191;28;20056;-66
2022/04/06 00:59:54;;;;;;;26.42;11.43;;;9.30;99.90;;;;;;5037279;28;20037;-66
2022/04/06 01:02:20;;;;;;;23.00;10.25;;;9.30;99.90;;;;;;5039632;28;20060;-66
2022/04/06 01:04:45;;;;;;;25.08;9.60;;;9.40;99.90;;;;;;5037724;28;20041;-66
2022/04/06 01:07:12;;;;;;;24.13;10.20;;;9.40;99.90;;;;;;5042495;28;20119;-66
2022/04/06 01:09:38;;;;;;;21.67;10.23;;;9.40;99.90;;;;;;5039244;28;20079;-65
2022/04/06 01:12:04;;;;;;;24.13;10.27;;;9.30;99.90;;;;;;5042170;28;20072;-66
2022/04/06 01:14:29;;;;;;;25.83;10.50;;;9.30;99.90;;;;;;5038890;28;20688;-65
2022/04/06 01:16:59;;;;;;;20.27;9.32;;;9.30;99.90;;;;;;5060509;28;20108;-65
2022/04/06 01:19:47;;;;;;;23.10;10.30;;;9.30;99.90;;;;;;5044258;28;20083;-65
2022/04/06 01:22:15;;;;;;;22.88;9.55;;;9.30;99.90;;;;;;5040700;28;20321;-65
2022/04/06 01:24:42;;;;;;;25.58;9.65;;;9.30;99.90;;;;;;5036567;28;20056;-66
2022/04/06 01:27:08;;;;;;;25.38;9.73;;;9.30;99.90;;;;;;5039620;28;20045;-65
2022/04/06 01:29:34;;;;;;;21.73;9.60;;;9.30;99.90;;;;;;5038584;28;20064;-65
2022/04/06 01:32:24;;;;;;;22.48;8.75;;;9.30;99.90;;;;;;5040587;28;20395;-65
2022/04/06 01:34:53;;;;;;;21.52;8.27;;;9.30;99.90;;;;;;5035649;28;20099;-65
2022/04/06 01:37:19;;;;;;;24.35;8.75;;;9.30;99.90;;;;;;5042648;28;20079;-65
2022/04/06 01:39:46;;;;;;;21.40;8.68;;;9.30;99.90;;;;;;5034090;28;20491;-65
2022/04/06 01:42:15;;;;;;;23.05;8.23;;;9.30;99.90;;;;;;5037836;28;20112;-65
2022/04/06 01:44:44;;;;;;;23.58;8.05;;;9.30;99.90;;;;;;5033469;28;20036;-65
2022/04/06 01:47:10;;;;;;;24.13;8.20;;;9.30;99.90;;;;;;5037855;28;20087;-65
2022/04/06 01:52:22;;;;;;;19.15;7.25;;;9.30;99.90;;;;;;5031789;28;20049;-65
2022/04/06 01:54:52;;;;;;;20.67;8.25;;;9.30;99.90;;;;;;5031699;28;20029;-66
2022/04/06 01:57:18;;;;;;;16.02;6.90;;;9.30;99.90;;;;;;5039966;28;20087;-65
2022/04/06 01:59:44;;;;;;;21.20;6.68;;;9.30;99.90;;;;;;5031871;28;20037;-65
2022/04/06 02:02:12;;;;;;;20.90;7.60;;;9.30;99.90;;;;;;5041497;28;20613;-65
2022/04/06 02:04:38;;;;;;;24.90;7.72;;;9.30;99.90;;;;;;5029667;28;20048;-65
2022/04/06 02:07:04;;;;;;;13.68;6.40;;;9.30;99.90;;;;;;5041467;28;20433;-65
2022/04/06 02:09:30;;;;;;;20.48;6.78;;;9.30;99.90;;;;;;5019792;28;20380;-66
2022/04/06 02:11:56;;;;;;;16.63;6.95;;;9.30;99.90;;;;;;5022240;28;20099;-65
2022/04/06 02:14:23;;;;;;;19.17;6.63;;;9.30;99.90;;;;;;5036527;28;20128;-65
2022/04/06 02:16:49;;;;;;;20.65;6.65;;;9.30;99.90;;;;;;5033816;28;20073;-66
2022/04/06 02:19:15;;;;;;;18.75;6.95;;;9.30;99.90;;;;;;5040558;28;20056;-65
2022/04/06 02:21:40;;;;;;;18.60;7.50;;;9.30;99.90;;;;;;5017612;28;20049;-65
2022/04/06 02:24:06;;;;;;;20.25;6.97;;;9.30;99.90;;;;;;5035053;28;20040;-65
2022/04/06 02:26:32;;;;;;;19.42;7.53;;;9.30;99.90;;;;;;5038258;28;20095;-65
2022/04/06 02:28:59;;;;;;;20.80;7.47;;;9.30;99.90;;;;;;5039588;28;20037;-65
2022/04/06 02:31:25;;;;;;;18.73;6.63;;;9.30;99.90;;;;;;5035540;28;20087;-65
2022/04/06 02:33:50;;;;;;;22.35;7.20;;;9.30;99.90;;;;;;5037602;28;20085;-65
2022/04/06 02:36:16;;;;;;;21.17;7.50;;;9.30;99.90;;;;;;5038360;28;20594;-65
2022/04/06 02:38:41;;;;;;;21.67;7.38;;;9.30;99.90;;;;;;5038762;28;20056;-65
2022/04/06 02:41:08;;;;;;;20.92;7.35;;;9.30;99.90;;;;;;5040348;28;20045;-65
2022/04/06 02:43:34;;;;;;;19.48;7.88;;;9.30;99.90;;;;;;5037294;28;20049;-65
2022/04/06 02:46:00;;;;;;;22.13;7.53;;;9.30;99.90;;;;;;5039454;28;20060;-65
2022/04/06 02:48:26;;;;;;;25.40;9.18;;;9.30;99.90;;;;;;5031077;28;20045;-66
2022/04/06 02:50:51;;;;;;;22.95;7.70;;;9.30;99.90;;;;;;5042637;28;20083;-65
2022/04/06 02:53:17;;;;;;;26.15;9.90;;;9.30;99.90;;;;;;5041302;28;20069;-65
2022/04/06 02:55:42;;;;;;;26.88;9.82;;;9.30;99.90;;;;;;5042173;28;20249;-65
2022/04/06 02:58:08;;;;;;;23.73;8.85;;;9.40;99.90;;;;;;5030295;28;20048;-66
2022/04/06 03:00:34;;;;;;;31.10;10.50;;;9.30;99.90;;;;;;5043991;28;20395;-65
2022/04/06 03:02:59;;;;;;;28.88;10.48;;;9.30;99.90;;;;;;5038120;28;20045;-66
2022/04/06 03:05:25;;;;;;;26.65;10.25;;;9.30;99.90;;;;;;5045026;28;20095;-66
2022/04/06 03:07:51;;;;;;;23.80;9.30;;;9.30;99.90;;;;;;5032262;28;20061;-65
2022/04/06 03:10:16;;;;;;;27.45;10.48;;;9.30;99.90;;;;;;5042179;28;20049;-65
2022/04/06 03:12:42;;;;;;;30.38;10.38;;;9.40;99.90;;;;;;5036834;28;20029;-66
2022/04/06 03:15:08;;;;;;;26.25;10.88;;;9.40;99.90;;;;;;5038777;28;20152;-66
2022/04/06 03:17:35;;;;;;;25.70;10.75;;;9.30;99.90;;;;;;5027072;28;20436;-66
2022/04/06 03:20:02;;;;;;;29.65;10.60;;;9.30;99.90;;;;;;5040408;28;20384;-66
2022/04/06 03:22:28;;;;;;;30.90;10.75;;;9.40;99.90;;;;;;5034461;28;20089;-65
2022/04/06 03:24:54;;;;;;;31.83;12.10;;;9.30;99.90;;;;;;5030779;28;20550;-65
2022/04/06 03:27:20;;;;;;;26.27;10.57;;;9.40;99.90;;;;;;5030564;28;20033;-65
2022/04/06 03:29:45;;;;;;;22.80;9.65;;;9.30;99.90;;;;;;5043599;28;20029;-65
2022/04/06 03:32:11;;;;;;;25.42;10.32;;;9.30;99.90;;;;;;5042520;28;20444;-66
2022/04/06 03:34:37;;;;;;;22.17;9.75;;;9.30;99.90;;;;;;5029841;28;20118;-65
2022/04/06 03:37:03;;;;;;;26.98;10.25;;;9.40;99.90;;;;;;5041303;28;20041;-65
2022/04/06 03:39:29;;;;;;;22.17;10.07;;;9.30;99.90;;;;;;5038715;28;20033;-66
2022/04/06 03:41:54;;;;;;;24.50;9.75;;;9.30;99.90;;;;;;5042793;28;20355;-65
2022/04/06 03:44:20;;;;;;;25.17;9.68;;;9.30;99.90;;;;;;5042234;28;20448;-65
2022/04/06 03:46:45;;;;;;;22.65;8.70;;;9.40;99.90;;;;;;5040089;28;20464;-65
2022/04/06 03:49:11;;;;;;;23.08;8.30;;;9.30;99.90;;;;;;5038674;28;20045;-66
2022/04/06 03:51:37;;;;;;;23.20;8.65;;;9.30;99.90;;;;;;5039899;28;20095;-65
2022/04/06 03:54:03;;;;;;;16.80;7.82;;;9.40;99.90;;;;;;5040550;28;20130;-66
2022/04/06 03:56:29;;;;;;;20.75;8.15;;;9.40;99.90;;;;;;5030756;28;20052;-65
2022/04/06 03:58:54;;;;;;;20.75;7.75;;;9.40;99.90;;;;;;5042957;28;20353;-66
2022/04/06 04:01:20;;;;;;;17.25;7.10;;;9.40;99.90;;;;;;5039714;28;20044;-65
2022/04/06 04:03:46;;;;;;;19.85;6.40;;;9.40;99.90;;;;;;5039214;28;20056;-65
2022/04/06 04:06:11;;;;;;;19.60;7.30;;;9.40;99.90;;;;;;5044695;28;20037;-66
2022/04/06 04:08:37;;;;;;;20.83;7.35;;;9.40;99.90;;;;;;5044959;28;20053;-65
2022/04/06 04:11:03;;;;;;;17.85;7.07;;;9.30;99.90;;;;;;5044150;28;20480;-65
2022/04/06 04:13:28;;;;;;;15.68;6.28;;;9.30;99.90;;;;;;5043867;28;20525;-66
2022/04/06 04:15:54;;;;;;;19.20;6.80;;;9.30;99.90;;;;;;5036424;28;20562;-65
2022/04/06 04:18:19;;;;;;;15.38;6.00;;;9.30;99.90;;;;;;5035862;28;20037;-66
2022/04/06 04:20:45;;;;;;;21.98;6.40;;;9.30;99.90;;;;;;5038258;28;20045;-66
2022/04/06 04:23:14;;;;;;;15.25;5.80;;;9.30;99.90;;;;;;5038905;28;20168;-66
2022/04/06 04:25:40;;;;;;;14.82;5.55;;;9.30;99.90;;;;;;5042907;28;20076;-66
2022/04/06 04:28:06;;;;;;;15.00;5.85;;;9.30;99.90;;;;;;5045696;28;20049;-66
2022/04/06 04:30:32;;;;;;;16.58;5.68;;;9.30;99.90;;;;;;5034863;28;20038;-66
2022/04/06 04:32:58;;;;;;;14.13;5.40;;;9.30;99.90;;;;;;5037784;28;20072;-65
2022/04/06 04:35:24;;;;;;;16.42;5.50;;;9.30;99.90;;;;;;5036800;28;20057;-66
2022/04/06 04:37:49;;;;;;;14.02;5.00;;;9.30;99.90;;;;;;5016358;28;20085;-66
2022/04/06 04:40:19;;;;;;;15.02;5.00;;;9.20;99.90;;;;;;5033233;28;20037;-65
2022/04/06 04:42:45;;;;;;;14.27;5.30;;;9.20;99.90;;;;;;5042664;28;20118;-66
2022/04/06 04:45:11;;;;;;;16.70;5.30;;;9.20;99.90;;;;;;5044693;28;20055;-65
2022/04/06 04:47:37;;;;;;;17.80;5.55;;;9.20;99.90;;;;;;5037588;28;20057;-65
2022/04/06 04:50:05;;;;;;;12.70;4.60;;;9.20;99.90;;;;;;5036970;28;20133;-65
2022/04/06 04:52:30;;;;;;;17.02;5.68;;;9.20;99.90;;;;;;5040519;28;20514;-65
2022/04/06 04:54:56;;;;;;;18.00;5.70;;;9.20;99.90;;;;;;5042229;28;20147;-65
2022/04/06 04:57:21;;;;;;;14.30;5.90;;;9.20;99.90;;;;;;5034430;28;20040;-66
2022/04/06 04:59:47;;;;;;;16.98;6.18;;;9.20;99.90;;;;;;5035988;28;20091;-65
2022/04/06 05:02:13;;;;;;;13.77;5.35;;;9.20;99.90;;;;;;5037520;28;20041;-66
2022/04/06 05:04:38;;;;;;;14.43;5.18;;;9.20;99.90;;;;;;5048273;28;20106;-65
2022/04/06 05:07:04;;;;;;;15.85;5.47;;;9.20;99.90;;;;;;5042064;28;20045;-66
2022/04/06 05:09:29;;;;;;;14.77;5.25;;;9.20;99.90;;;;;;5044812;28;20498;-65
2022/04/06 05:11:55;;;;;;;14.60;5.38;;;9.20;99.90;;;;;;5037266;28;20051;-67
2022/04/06 05:14:21;;;;;;;19.80;5.43;;;9.20;99.90;;;;;;5036971;28;20072;-66
2022/04/06 05:16:47;;;;;;;12.40;4.53;;;9.20;99.90;;;;;;5035370;28;20167;-66
2022/04/06 05:19:12;;;;;;;11.80;4.80;;;9.10;99.90;;;;;;5039027;28;20564;-66
2022/04/06 05:21:38;;;;;;;16.63;4.82;;;9.20;99.90;;;;;;5042441;28;20041;-66
2022/04/06 05:24:04;;;;;;;17.75;4.88;;;9.10;99.90;;;;;;5039152;28;20513;-65
2022/04/06 05:26:31;;;;;;;11.40;4.40;;;9.10;99.90;;;;;;5042991;28;20055;-66
2022/04/06 05:28:56;;;;;;;14.27;4.00;;;9.10;99.90;;;;;;5038982;28;20127;-66
2022/04/06 05:31:22;;;;;;;14.43;3.92;;;9.10;99.90;;;;;;5035527;28;20041;-65
2022/04/06 05:33:48;;;;;;;10.13;3.83;;;9.10;99.90;;;;;;5039692;28;20594;-66
2022/04/06 05:36:14;;;;;;;13.60;4.55;;;9.20;99.90;;;;;;5038175;28;20053;-66
2022/04/06 05:38:40;;;;;;;15.85;3.80;;;9.20;99.90;;;;;;5039253;28;20076;-66
2022/04/06 05:41:05;;;;;;;13.95;4.15;;;9.10;99.90;;;;;;5043661;28;20049;-66
2022/04/06 05:43:31;;;;;;;11.98;3.20;;;9.20;99.90;;;;;;5043045;28;20041;-66
2022/04/06 05:45:56;;;;;;;12.55;3.60;;;9.20;99.90;;;;;;5046239;28;20052;-65
2022/04/06 05:48:22;;;;;;;9.45;2.80;;;9.20;99.90;;;;;;5043690;28;20043;-65
2022/04/06 05:50:47;;;;;;;12.23;3.03;;;9.20;99.90;;;;;;5048649;28;20043;-65
2022/04/06 05:53:14;;;;;;;9.23;2.58;;;9.20;99.90;;;;;;5041602;28;20102;-65
2022/04/06 05:55:42;;;;;;;8.07;2.60;;;9.20;99.90;;;;;;5036961;28;20085;-65
2022/04/06 05:58:07;;;;;;;9.88;2.45;;;9.20;99.90;;;;;;5033578;28;20056;-65
2022/04/06 06:00:33;;;;;;;24.52;3.67;;;9.20;99.90;;;;;;5033910;28;20112;-65
2022/04/06 06:02:58;;;;;;;8.27;2.75;;;9.20;99.90;;;;;;5033174;28;20174;-65
2022/04/06 06:05:24;;;;;;;9.73;2.38;;;9.30;99.90;;;;;;5036101;28;20045;-65
2022/04/06 06:07:49;;;;;;;13.70;2.80;;;9.30;99.90;;;;;;5035828;28;20045;-65
2022/04/06 06:10:15;;;;;;;8.90;2.17;;;9.30;99.90;;;;;;5033863;28;20045;-65
2022/04/06 06:12:40;;;;;;;10.25;2.92;;;9.30;99.90;;;;;;5036612;28;20079;-65
2022/04/06 06:15:06;;;;;;;7.60;2.42;;;9.20;99.90;;;;;;5037815;28;20068;-65
2022/04/06 06:17:37;;;;;;;9.50;2.33;;;9.20;99.90;;;;;;5034886;28;20550;-65
2022/04/06 06:20:03;;;;;;;9.75;2.30;;;9.30;99.90;;;;;;5033313;28;20442;-65
2022/04/06 06:22:28;;;;;;;8.88;3.03;;;9.20;99.90;;;;;;5036846;28;20063;-65
2022/04/06 06:24:54;;;;;;;8.23;2.53;;;9.30;99.90;;;;;;5026963;28;20059;-65
2022/04/06 06:27:19;;;;;;;11.68;2.65;;;9.20;99.90;;;;;;5035612;28;20075;-66
2022/04/06 06:29:47;;;;;;;7.82;2.78;;;9.20;99.90;;;;;;5035424;28;20548;-65
2022/04/06 06:32:13;;;;;;;11.57;3.05;;;9.20;99.90;;;;;;5033760;28;20041;-65
2022/04/06 06:34:38;;;;;;;11.15;3.15;;;9.20;99.90;;;;;;5033283;28;20045;-65
2022/04/06 06:37:04;;;;;;;13.40;3.30;;;9.20;99.90;;;;;;5037847;28;20382;-65
2022/04/06 06:39:30;;;;;;;13.10;2.90;;;9.20;99.90;;;;;;5036909;28;20048;-64
2022/04/06 06:41:55;;;;;;;14.40;3.38;;;9.20;99.90;;;;;;5033343;28;20045;-65
2022/04/06 06:44:21;;;;;;;14.02;2.85;;;9.20;99.90;;;;;;5031525;28;20045;-65
2022/04/06 06:46:47;;;;;;;12.98;3.10;;;9.20;99.90;;;;;;5044213;28;20037;-65
2022/04/06 06:49:14;;;;;;;9.43;2.83;;;9.20;99.90;;;;;;5043911;28;20494;-65
2022/04/06 06:51:40;;;;;;;11.18;3.05;;;9.20;99.90;;;;;;5041385;28;20045;-65
2022/04/06 06:54:06;;;;;;;11.85;3.13;;;9.20;99.90;;;;;;5044077;28;20056;-65
2022/04/06 06:56:32;;;;;;;12.75;3.33;;;9.20;99.90;;;;;;5043436;28;20052;-65
2022/04/06 06:58:57;;;;;;;11.32;3.25;;;9.30;99.90;;;;;;5031152;28;20483;-65
2022/04/06 07:01:23;;;;;;;10.57;2.88;;;9.30;99.90;;;;;;5042807;28;20045;-64
2022/04/06 07:03:49;;;;;;;12.45;2.90;;;9.30;99.90;;;;;;5037922;28;20052;-65
2022/04/06 07:06:15;;;;;;;13.32;2.78;;;9.30;99.90;;;;;;5032730;28;20064;-66
2022/04/06 07:08:40;;;;;;;11.55;3.25;;;9.30;99.90;;;;;;5040952;28;20041;-65
2022/04/06 07:11:06;;;;;;;11.63;2.78;;;9.30;99.90;;;;;;5038178;28;20431;-64
2022/04/06 07:13:32;;;;;;;11.27;3.10;;;9.30;99.90;;;;;;5032840;28;20091;-64
2022/04/06 07:15:57;;;;;;;12.73;3.22;;;9.30;99.90;;;;;;5044165;28;20052;-65
2022/04/06 07:18:23;;;;;;;9.80;2.95;;;9.30;99.90;;;;;;5040787;28;20045;-64
2022/04/06 07:20:49;;;;;;;13.95;3.58;;;9.40;99.90;;;;;;5035428;28;20445;-65
2022/04/06 07:23:14;;;;;;;12.82;3.53;;;9.40;99.90;;;;;;5035249;28;20132;-65
2022/04/06 07:25:40;;;;;;;13.77;3.50;;;9.40;99.90;;;;;;5043187;28;20452;-65
2022/04/06 07:28:08;;;;;;;13.00;3.40;;;9.40;99.90;;;;;;5034556;28;20137;-65
2022/04/06 07:30:34;;;;;;;12.93;3.30;;;9.40;99.90;;;;;;5038529;28;20250;-65
2022/04/06 07:32:59;;;;;;;13.25;3.63;;;9.30;99.90;;;;;;5045467;28;20072;-65
2022/04/06 07:35:26;;;;;;;13.15;3.67;;;9.30;99.90;;;;;;5044498;28;20133;-66
2022/04/06 07:37:52;;;;;;;13.60;3.50;;;9.40;99.90;;;;;;5037559;28;20045;-65
2022/04/06 07:40:22;;;;;;;13.75;3.97;;;9.40;99.90;;;;;;5036571;28;20052;-65
2022/04/06 07:42:49;;;;;;;9.60;3.22;;;9.40;99.90;;;;;;5031794;28;20756;-65
2022/04/06 07:45:17;;;;;;;18.95;4.53;;;9.40;99.90;;;;;;5013402;28;20099;-64
2022/04/06 07:47:44;;;;;;;15.95;4.10;;;9.50;99.90;;;;;;5036694;28;20063;-66
2022/04/06 07:50:12;;;;;;;14.15;3.90;;;9.50;99.90;;;;;;5035913;28;20367;-65
2022/04/06 07:52:38;;;;;;;15.35;4.82;;;9.50;99.90;;;;;;5040035;28;20045;-65
2022/04/06 07:55:06;;;;;;;13.02;4.07;;;9.50;99.90;;;;;;5042021;28;20032;-65
2022/04/06 07:57:32;;;;;;;14.40;3.97;;;9.50;99.90;;;;;;5047174;28;20200;-65
2022/04/06 07:59:58;;;;;;;14.00;3.85;;;9.60;99.90;;;;;;5041715;28;20195;-65
2022/04/06 08:02:23;;;;;;;8.85;3.80;;;9.60;99.90;;;;;;5031040;28;20499;-65
2022/04/06 08:04:50;;;;;;;15.07;4.32;;;9.70;99.90;;;;;;5041331;28;20045;-65
2022/04/06 08:07:16;;;;;;;13.98;4.38;;;9.70;99.90;;;;;;5047758;28;20128;-65
2022/04/06 08:09:41;;;;;;;13.68;3.92;;;9.70;99.90;;;;;;5040344;28;20124;-65
2022/04/06 08:12:07;;;;;;;14.77;3.72;;;9.70;99.90;;;;;;5038266;28;20061;-65
2022/04/06 08:14:33;;;;;;;10.90;4.03;;;9.70;99.90;;;;;;5035778;28;20037;-65
2022/04/06 08:16:59;;;;;;;14.32;4.30;;;9.70;99.90;;;;;;5037401;28;20044;-65
2022/04/06 08:19:25;;;;;;;14.45;3.70;;;9.70;99.90;;;;;;5039415;28;20396;-65
2022/04/06 08:21:52;;;;;;;11.95;3.50;;;9.80;99.90;;;;;;5038285;28;20045;-65
2022/04/06 08:24:17;;;;;;;10.52;3.55;;;9.80;99.90;;;;;;5042682;28;20079;-65
2022/04/06 08:26:43;;;;;;;13.68;2.88;;;9.80;99.90;;;;;;5031704;28;20151;-65
2022/04/06 08:29:09;;;;;;;13.50;3.15;;;9.80;99.90;;;;;;5036727;28;20533;-65
2022/04/06 08:31:35;;;;;;;9.27;3.08;;;9.80;99.90;;;;;;5033125;28;20640;-66
2022/04/06 08:34:00;;;;;;;8.65;2.70;;;9.80;99.90;;;;;;5033475;28;20061;-65
2022/04/06 08:36:26;;;;;;;11.85;3.10;;;9.80;99.90;;;;;;5043472;28;20072;-66
2022/04/06 08:38:52;;;;;;;14.50;3.35;;;9.70;99.90;;;;;;5045738;28;20463;-65
2022/04/06 08:41:20;;;;;;;12.77;2.92;;;9.70;99.90;;;;;;5041409;28;20411;-65
2022/04/06 08:43:46;;;;;;;12.05;3.15;;;9.70;99.90;;;;;;5036752;28;20068;-66
2022/04/06 08:46:12;;;;;;;12.85;3.78;;;9.70;99.90;;;;;;5049090;28;20088;-66
2022/04/06 08:48:38;;;;;;;10.82;3.10;;;9.70;99.90;;;;;;5047538;28;20041;-65
2022/04/06 08:51:07;;;;;;;11.65;3.00;;;9.70;99.90;;;;;;5038116;28;20041;-66
2022/04/06 08:53:38;;;;;;;13.05;3.10;;;9.70;99.90;;;;;;5035231;28;20101;-66
2022/04/06 08:56:04;;;;;;;11.07;3.15;;;9.70;99.90;;;;;;5039993;28;20124;-66
2022/04/06 08:58:30;;;;;;;10.60;3.33;;;9.70;99.90;;;;;;5035999;28;20555;-65
2022/04/06 09:00:56;;;;;;;10.95;3.05;;;9.60;99.90;;;;;;5047742;28;20049;-66
2022/04/06 09:03:22;;;;;;;11.57;3.00;;;9.70;99.90;;;;;;5037805;28;20052;-66
2022/04/06 09:06:05;;;;;;;12.63;3.15;;;9.60;99.90;;;;;;5038190;28;20204;-66
2022/04/06 09:08:46;;;;;;;10.25;2.90;;;9.60;99.90;;;;;;5045752;28;20148;-66
2022/04/06 09:11:13;;;;;;;7.40;2.88;;;9.70;99.90;;;;;;5039518;28;20691;-65
2022/04/06 09:13:41;;;;;;;8.68;2.90;;;9.80;99.90;;;;;;5036242;28;20049;-65
2022/04/06 09:16:08;;;;;;;11.13;3.30;;;9.80;99.90;;;;;;5035393;28;20124;-64
2022/04/06 09:18:35;;;;;;;11.20;3.58;;;9.90;99.90;;;;;;5045544;28;20052;-66
2022/04/06 09:21:02;;;;;;;11.20;3.28;;;9.90;99.90;;;;;;5049525;28;20124;-66
2022/04/06 09:23:34;;;;;;;11.20;3.55;;;9.90;99.90;;;;;;5049183;28;20055;-65
2022/04/06 09:26:05;;;;;;;11.43;3.90;;;9.90;99.90;;;;;;5043358;28;20072;-66
2022/04/06 09:28:31;;;;;;;11.25;3.88;;;10.00;99.90;;;;;;5046232;28;20052;-65
2022/04/06 09:30:57;;;;;;;9.57;4.00;;;10.00;99.90;;;;;;5048024;28;20112;-65
2022/04/06 09:33:28;;;;;;;12.85;4.32;;;10.00;99.90;;;;;;5039813;28;20058;-65
2022/04/06 09:35:55;;;;;;;9.98;3.90;;;10.10;99.90;;;;;;5033357;28;20107;-66
2022/04/06 09:38:27;;;;;;;16.17;4.40;;;10.10;99.90;;;;;;5046196;28;20057;-65
2022/04/06 09:41:06;;;;;;;10.90;4.28;;;10.10;99.90;;;;;;5035345;28;20059;-65
2022/04/06 09:43:33;;;;;;;10.95;4.82;;;10.20;99.90;;;;;;5047532;28;20480;-65
2022/04/06 09:49:09;;;;;;;12.98;4.75;;;10.30;99.90;;;;;;5046206;28;20126;-66
2022/04/06 09:51:40;;;;;;;8.52;4.70;;;10.30;99.90;;;;;;5039419;28;20122;-64
2022/04/06 09:54:07;;;;;;;12.60;4.85;;;10.30;99.90;;;;;;5041512;28;20095;-65
2022/04/06 09:56:35;;;;;;;13.45;4.35;;;10.30;99.90;;;;;;5038937;28;20075;-65
2022/04/06 09:59:02;;;;;;;12.52;4.55;;;10.30;99.90;;;;;;5041356;28;20073;-65
2022/04/06 10:01:37;;;;;;;13.15;4.57;;;10.30;99.90;;;;;;5040090;28;20042;-65
2022/04/06 10:04:05;;;;;;;13.07;5.07;;;10.40;99.90;;;;;;5039713;28;20053;-65
2022/04/06 10:06:38;;;;;;;12.00;4.82;;;10.30;99.90;;;;;;5035675;28;20107;-64
2022/04/06 10:09:08;;;;;;;13.07;4.85;;;10.40;99.90;;;;;;5047709;28;20163;-65
2022/04/06 10:11:35;;;;;;;14.07;4.85;;;10.40;99.90;;;;;;5043636;28;20114;-64
2022/04/06 10:14:04;;;;;;;14.55;5.72;;;10.50;99.90;;;;;;5044638;28;20379;-65
2022/04/06 10:16:31;;;;;;;14.20;5.30;;;10.60;99.90;;;;;;5045846;28;20055;-65
2022/04/06 10:18:57;;;;;;;11.85;5.60;;;10.70;99.90;;;;;;5041511;28;20063;-64
2022/04/06 10:21:59;;;;;;;11.20;4.50;;;10.70;99.90;;;;;;5048109;28;20459;-64
2022/04/06 10:24:30;;;;;;;10.35;4.50;;;10.60;99.90;;;;;;5042855;28;20144;-65
2022/04/06 10:27:17;;;;;;;13.65;5.03;;;10.60;99.90;;;;;;5046919;28;20120;-65
2022/04/06 10:30:17;;;;;;;11.60;5.28;;;10.50;99.90;;;;;;5045142;28;20344;-65
2022/04/06 10:32:50;;;;;;;13.70;5.35;;;10.50;99.90;;;;;;5036729;28;20057;-64
2022/04/06 10:35:19;;;;;;;12.55;5.88;;;10.50;99.90;;;;;;5037652;28;20197;-65
2022/04/06 10:37:58;;;;;;;11.10;5.15;;;10.40;99.90;;;;;;5044744;28;20317;-65
2022/04/06 10:40:24;;;;;;;10.68;5.70;;;10.40;99.90;;;;;;5036725;28;20045;-65
2022/04/06 10:42:51;;;;;;;11.68;5.63;;;10.40;99.90;;;;;;5042770;28;20045;-65
2022/04/06 10:45:29;;;;;;;12.57;5.85;;;10.40;99.90;;;;;;5037085;28;20079;-65
2022/04/06 10:48:15;;;;;;;13.32;5.78;;;10.40;99.90;;;;;;5046464;28;20037;-66
2022/04/06 10:50:46;;;;;;;12.73;5.93;;;10.30;99.90;;;;;;5037187;28;20372;-65
2022/04/06 10:53:23;;;;;;;17.17;6.47;;;10.30;99.90;;;;;;5035102;28;20053;-65
2022/04/06 10:55:58;;;;;;;12.68;5.82;;;10.30;99.90;;;;;;5045997;28;20131;-65
2022/04/06 10:58:26;;;;;;;;;;;10.30;99.90;;;;;;5046592;28;20075;-66
2022/04/06 11:01:17;;;;;;;13.93;6.57;;;10.40;99.90;;;;;;5040395;28;19964;-66
2022/04/06 11:03:58;;;;;;;14.10;6.95;;;10.40;99.90;;;;;;5041731;28;20112;-65
2022/04/06 11:06:48;;;;;;;13.95;6.68;;;10.50;99.90;;;;;;5043256;28;20049;-65
2022/04/06 11:12:13;;;;;;;;;;;10.50;99.90;;;;;;5052578;28;20067;-66
2022/04/06 11:14:40;;;;;;;12.95;6.60;;;10.60;99.90;;;;;;5048025;28;19931;-66
2022/04/06 11:17:45;;;;;;;13.20;7.07;;;10.60;99.90;;;;;;5050130;28;20049;-65
2022/04/06 11:20:14;;;;;;;13.10;7.47;;;10.80;99.90;;;;;;5047755;28;20471;-65
2022/04/06 11:22:43;;;;;;;16.02;7.68;;;11.00;99.90;;;;;;5045993;28;20114;-65
2022/04/06 11:25:18;;;;;;;16.42;7.00;;;11.10;99.90;;;;;;5025410;28;20100;-66
2022/04/06 11:27:46;;;;;;;17.08;7.93;;;11.20;99.90;;;;;;5038509;28;20100;-65
2022/04/06 11:30:14;;;;;;;13.15;7.07;;;11.20;99.90;;;;;;5049826;28;20041;-65
2022/04/06 11:32:43;;;;;;;18.13;7.60;;;11.40;99.90;;;;;;5048100;28;20130;-66
2022/04/06 11:35:13;;;;;;;16.80;7.82;;;11.40;99.90;;;;;;5042656;28;20410;-66
2022/04/06 11:37:46;;;;;;;15.93;8.13;;;11.40;99.90;;;;;;5041588;28;20037;-66
2022/04/06 11:40:13;;;;;;;15.48;7.65;;;11.40;99.90;;;;;;5047016;28;20071;-66
2022/04/06 11:42:39;;;;;;;18.58;9.25;;;11.30;99.90;;;;;;5048358;28;20494;-66
2022/04/06 11:45:07;;;;;;;14.52;7.93;;;11.30;99.90;;;;;;5046357;28;20558;-66
2022/04/06 11:47:34;;;;;;;16.77;8.55;;;11.40;99.90;;;;;;5046255;28;20149;-66
2022/04/06 11:50:01;;;;;;;15.95;8.27;;;11.60;99.90;;;;;;5049856;28;20052;-66
2022/04/06 11:52:27;;;;;;;16.50;8.55;;;11.80;99.90;;;;;;5049782;28;20047;-66
2022/04/06 11:54:56;;;;;;;19.02;8.02;;;12.00;99.90;;;;;;5049087;28;20037;-65
2022/04/06 11:57:39;;;;;;;16.13;7.60;;;12.20;99.90;;;;;;5048987;28;20118;-66
2022/04/06 12:00:11;;;;;;;17.55;7.43;;;12.20;99.90;;;;;;5032360;28;20080;-65
2022/04/06 12:02:56;;;;;;;15.25;7.05;;;12.20;99.90;;;;;;5047848;28;20040;-65
2022/04/06 12:05:23;;;;;;;12.20;6.78;;;12.30;99.90;;;;;;5050640;28;20052;-65
2022/04/06 12:08:15;;;;;;;13.13;6.32;;;12.30;99.90;;;;;;5051863;28;20049;-66
2022/04/06 12:10:49;;;;;;;16.48;6.90;;;12.10;99.90;;;;;;5045157;28;20048;-66
2022/04/06 12:13:16;;;;;;;15.25;7.07;;;12.00;99.90;;;;;;5042179;28;20072;-65
2022/04/06 12:15:42;;;;;;;11.23;6.57;;;11.90;99.90;;;;;;5046171;28;20045;-66
2022/04/06 12:18:08;;;;;;;12.68;6.68;;;11.90;99.90;;;;;;5044213;28;20064;-65
2022/04/06 12:20:34;;;;;;;17.38;6.72;;;11.80;99.90;;;;;;5048698;28;20037;-64
2022/04/06 12:23:04;;;;;;;13.48;6.80;;;11.80;99.90;;;;;;5048926;28;20448;-65
2022/04/06 12:25:34;;;;;;;12.68;6.80;;;11.90;99.90;;;;;;5049483;28;20041;-65
2022/04/06 12:28:19;;;;;;;14.10;7.03;;;11.90;99.90;;;;;;5046630;28;20094;-66
2022/04/06 12:31:00;;;;;;;13.85;7.43;;;12.00;99.90;;;;;;5042406;28;20040;-66
2022/04/06 12:33:51;;;;;;;11.30;6.78;;;11.90;99.90;;;;;;5041681;28;20061;-65
2022/04/06 12:36:30;;;;;;;11.68;7.07;;;11.90;99.90;;;;;;5034709;28;20037;-64
2022/04/06 12:39:08;;;;;;;13.18;7.07;;;12.00;99.90;;;;;;5042333;28;20106;-65
2022/04/06 12:41:53;;;;;;;13.70;6.85;;;12.00;99.90;;;;;;5042519;28;20122;-65
2022/04/06 12:44:19;;;;;;;13.73;7.25;;;12.00;99.90;;;;;;5043601;28;20065;-66
2022/04/06 12:46:47;;;;;;;14.15;6.68;;;12.10;99.90;;;;;;5038745;28;20094;-64
2022/04/06 12:49:29;;;;;;;12.95;7.07;;;12.10;99.90;;;;;;5048480;28;20103;-66
2022/04/06 12:52:14;;;;;;;13.30;6.80;;;12.10;99.90;;;;;;5049500;28;20108;-66
2022/04/06 12:54:43;;;;;;;13.00;6.82;;;12.10;99.90;;;;;;5049212;28;20045;-65
2022/04/06 12:57:16;;;;;;;10.57;6.25;;;12.00;99.90;;;;;;5037499;28;20057;-65